Time;durP1;ratioP1;P1;durP2;ratioP2;P2;SDS_P1;SDS_P2;PMS_P1;PMS_P2;Temp;Humidity;BMP_temperature;BMP_pressure;BME280_temperature;BME280_humidity;BME280_pressure;Samples;Min_cycle;Max_cycle;Signal;HPM_P1;HPM_P2
2022/03/20 00:01:17;;;;;;;7.45;6.10;;;24.00;30.50;;;;;;4935715;29;20509;-69
2022/03/20 00:03:43;;;;;;;7.33;6.03;;;24.10;29.80;;;;;;4942057;28;20863;-69
2022/03/20 00:06:09;;;;;;;6.95;6.00;;;24.10;29.90;;;;;;4960780;28;20402;-68
2022/03/20 00:08:35;;;;;;;6.90;5.73;;;24.10;30.10;;;;;;4963080;28;20887;-65
2022/03/20 00:11:02;;;;;;;7.57;6.35;;;24.10;30.00;;;;;;4962414;28;20397;-69
2022/03/20 00:13:30;;;;;;;7.35;6.00;;;24.20;30.10;;;;;;4960973;28;20874;-69
2022/03/20 00:15:57;;;;;;;7.03;6.03;;;24.20;30.00;;;;;;4958893;28;20760;-69
2022/03/20 00:18:24;;;;;;;7.10;5.60;;;24.20;30.00;;;;;;4961967;28;20394;-69
2022/03/20 00:20:59;;;;;;;6.82;5.53;;;24.20;30.00;;;;;;4945709;28;20474;-68
2022/03/20 00:23:26;;;;;;;7.10;5.63;;;24.20;30.00;;;;;;4962682;28;20493;-70
2022/03/20 00:25:53;;;;;;;7.25;5.90;;;24.20;30.00;;;;;;4960629;28;20425;-66
2022/03/20 00:28:20;;;;;;;7.30;5.75;;;24.20;29.80;;;;;;4962444;28;20397;-67
2022/03/20 00:30:50;;;;;;;7.13;5.50;;;24.20;29.80;;;;;;4962765;28;20394;-69
2022/03/20 00:33:15;;;;;;;6.70;5.78;;;24.20;30.00;;;;;;4958862;28;20489;-67
2022/03/20 00:35:41;;;;;;;6.57;5.40;;;24.20;30.00;;;;;;4961639;28;20471;-66
2022/03/20 00:38:08;;;;;;;6.32;5.30;;;24.20;30.00;;;;;;4963019;28;20406;-69
2022/03/20 00:40:34;;;;;;;6.18;5.15;;;24.20;29.90;;;;;;4960907;28;20420;-69
2022/03/20 00:43:00;;;;;;;6.50;5.25;;;24.20;29.90;;;;;;4962551;28;20414;-69
2022/03/20 00:45:28;;;;;;;6.57;5.85;;;24.20;29.70;;;;;;4965709;28;20760;-69
2022/03/20 00:47:54;;;;;;;6.80;5.80;;;24.20;29.60;;;;;;4941259;29;20422;-70
2022/03/20 00:50:21;;;;;;;6.82;5.38;;;24.10;29.60;;;;;;4936410;29;20418;-68
2022/03/20 00:52:47;;;;;;;6.75;5.78;;;24.10;29.50;;;;;;4936530;29;20406;-69
2022/03/20 00:55:13;;;;;;;6.18;5.13;;;24.10;29.50;;;;;;4936724;29;20778;-70
2022/03/20 00:57:38;;;;;;;6.03;5.40;;;24.10;29.50;;;;;;4936185;29;20878;-71
2022/03/20 01:00:05;;;;;;;7.38;5.45;;;24.10;29.60;;;;;;4936768;29;20419;-69
2022/03/20 01:02:39;;;;;;;6.70;5.05;;;24.10;29.50;;;;;;4936262;29;20459;-69
2022/03/20 01:05:05;;;;;;;6.47;5.22;;;24.10;29.50;;;;;;4956073;28;20417;-68
2022/03/20 01:07:31;;;;;;;5.90;5.20;;;24.10;29.50;;;;;;4955510;29;20402;-67
2022/03/20 01:09:56;;;;;;;5.82;4.82;;;24.10;29.50;;;;;;4955835;29;20393;-69
2022/03/20 01:12:22;;;;;;;5.90;5.30;;;24.10;29.50;;;;;;4955553;29;20912;-66
2022/03/20 01:14:48;;;;;;;7.20;5.73;;;24.10;29.50;;;;;;4955579;29;20404;-70
2022/03/20 01:17:13;;;;;;;6.35;5.30;;;24.00;29.40;;;;;;4938356;29;20505;-68
2022/03/20 01:19:39;;;;;;;5.40;4.63;;;24.00;29.50;;;;;;4955191;29;20428;-68
2022/03/20 01:22:05;;;;;;;6.88;5.22;;;24.00;29.50;;;;;;4955346;29;20425;-69
2022/03/20 01:24:30;;;;;;;6.23;5.10;;;24.00;29.40;;;;;;4955410;29;20557;-69
2022/03/20 01:26:57;;;;;;;5.80;5.13;;;24.00;29.50;;;;;;4955477;29;20402;-69
2022/03/20 01:29:22;;;;;;;6.50;5.30;;;24.00;29.50;;;;;;4955275;29;20402;-69
2022/03/20 01:31:49;;;;;;;6.55;5.30;;;24.00;29.50;;;;;;4955031;29;20410;-69
2022/03/20 01:34:15;;;;;;;6.13;5.30;;;24.00;29.50;;;;;;4955283;29;20467;-68
2022/03/20 01:36:41;;;;;;;5.95;5.07;;;24.00;29.50;;;;;;4955323;29;20398;-69
2022/03/20 01:39:07;;;;;;;6.80;5.07;;;24.00;29.50;;;;;;4955176;29;20481;-68
2022/03/20 01:41:33;;;;;;;6.53;4.90;;;23.90;29.50;;;;;;4954818;29;20509;-68
2022/03/20 01:44:00;;;;;;;6.60;5.30;;;23.90;29.50;;;;;;4954917;29;20401;-69
2022/03/20 01:46:27;;;;;;;6.18;4.65;;;23.90;29.50;;;;;;4954909;29;20398;-67
2022/03/20 01:48:53;;;;;;;6.03;4.93;;;23.90;29.40;;;;;;4954560;29;20904;-69
2022/03/20 01:52:10;;;;;;;5.95;4.75;;;23.90;29.40;;;;;;4954823;29;20438;-69
2022/03/20 01:54:11;;;;;;;6.15;5.20;;;23.90;29.40;;;;;;4954328;28;20764;-69
2022/03/20 01:56:41;;;;;;;5.65;4.80;;;23.90;29.50;;;;;;4954080;29;20404;-69
2022/03/20 01:59:07;;;;;;;6.07;4.77;;;23.80;29.30;;;;;;4954844;29;20498;-69
2022/03/20 02:01:32;;;;;;;5.95;4.93;;;23.80;29.30;;;;;;4954581;29;20912;-68
2022/03/20 02:03:58;;;;;;;5.30;4.80;;;23.80;29.30;;;;;;4954262;29;20481;-69
2022/03/20 02:06:26;;;;;;;6.07;4.78;;;23.80;29.30;;;;;;4954217;29;20453;-68
2022/03/20 02:08:56;;;;;;;5.85;4.55;;;23.80;29.30;;;;;;4954072;29;20394;-69
2022/03/20 02:11:23;;;;;;;5.82;4.68;;;23.80;29.30;;;;;;4954428;29;20897;-69
2022/03/20 02:13:49;;;;;;;5.05;4.30;;;23.80;29.20;;;;;;4954031;29;20425;-68
2022/03/20 02:16:15;;;;;;;5.65;4.85;;;23.80;29.20;;;;;;4954493;29;20901;-69
2022/03/20 02:18:41;;;;;;;5.35;4.63;;;23.80;29.20;;;;;;4954485;29;20390;-67
2022/03/20 02:21:06;;;;;;;5.72;4.70;;;23.80;29.20;;;;;;4954105;29;20432;-69
2022/03/20 02:23:34;;;;;;;5.07;4.30;;;23.80;29.20;;;;;;4954210;29;20402;-69
2022/03/20 02:26:01;;;;;;;5.60;4.50;;;23.80;29.20;;;;;;4954067;29;20390;-68
2022/03/20 02:28:26;;;;;;;5.68;4.88;;;23.80;29.20;;;;;;4954098;29;20552;-69
2022/03/20 02:30:52;;;;;;;5.95;4.72;;;23.80;29.20;;;;;;4954237;29;20480;-69
2022/03/20 02:33:21;;;;;;;5.60;4.73;;;23.80;29.20;;;;;;4954122;29;20402;-68
2022/03/20 02:35:47;;;;;;;5.85;4.75;;;23.80;29.20;;;;;;4936455;29;20406;-68
2022/03/20 02:38:13;;;;;;;5.35;4.55;;;23.80;29.20;;;;;;4954065;29;20428;-69
2022/03/20 02:40:39;;;;;;;5.25;3.90;;;23.70;29.20;;;;;;4936697;29;20896;-69
2022/03/20 02:43:08;;;;;;;4.97;4.43;;;23.80;29.20;;;;;;4953942;29;20473;-68
2022/03/20 02:45:34;;;;;;;4.75;4.25;;;23.70;29.20;;;;;;4936638;29;20479;-69
2022/03/20 02:48:01;;;;;;;5.32;4.22;;;23.70;29.20;;;;;;4936211;29;20417;-68
2022/03/20 02:50:30;;;;;;;5.18;4.50;;;23.70;29.10;;;;;;4953609;29;20414;-68
2022/03/20 02:52:58;;;;;;;5.25;4.30;;;23.70;29.20;;;;;;4936600;29;20402;-69
2022/03/20 02:55:31;;;;;;;5.00;4.45;;;23.70;29.10;;;;;;4953706;29;20398;-68
2022/03/20 02:57:59;;;;;;;5.35;4.30;;;23.70;29.10;;;;;;4953322;29;20943;-68
2022/03/20 03:00:28;;;;;;;5.40;4.20;;;23.70;29.10;;;;;;4936381;29;20730;-68
2022/03/20 03:02:56;;;;;;;5.00;4.40;;;23.70;29.20;;;;;;4953786;29;20488;-67
2022/03/20 03:05:25;;;;;;;5.47;4.65;;;23.70;29.20;;;;;;4953583;29;20428;-67
2022/03/20 03:10:55;;;;;;;5.75;4.25;;;23.60;29.10;;;;;;4953522;29;20441;-69
2022/03/20 03:13:34;;;;;;;4.65;4.07;;;23.60;29.10;;;;;;4953422;29;20393;-69
2022/03/20 03:16:05;;;;;;;4.80;4.10;;;23.60;29.10;;;;;;4953046;29;20398;-68
2022/03/20 03:18:31;;;;;;;4.93;4.03;;;23.60;29.10;;;;;;4953418;29;20405;-69
2022/03/20 03:20:57;;;;;;;5.10;4.15;;;23.60;29.10;;;;;;4953312;29;20449;-69
2022/03/20 03:23:26;;;;;;;5.00;4.03;;;23.60;29.10;;;;;;4952679;29;20398;-69
2022/03/20 03:25:52;;;;;;;5.30;4.45;;;23.60;29.00;;;;;;4952771;29;20390;-69
2022/03/20 03:28:18;;;;;;;4.70;4.20;;;23.60;29.10;;;;;;4953221;29;20402;-69
2022/03/20 03:30:46;;;;;;;5.53;4.68;;;23.60;29.10;;;;;;4952962;29;20907;-69
2022/03/20 03:33:13;;;;;;;5.32;4.28;;;23.60;29.00;;;;;;4953307;29;20409;-69
2022/03/20 03:35:42;;;;;;;5.22;4.20;;;23.50;29.00;;;;;;4953189;29;20481;-69
2022/03/20 03:38:11;;;;;;;4.85;4.20;;;23.50;28.90;;;;;;4953100;29;20882;-69
2022/03/20 03:40:38;;;;;;;5.10;4.38;;;23.50;28.90;;;;;;4953076;29;20414;-69
2022/03/20 03:43:04;;;;;;;4.80;3.97;;;23.50;28.90;;;;;;4953111;29;20482;-68
2022/03/20 03:45:29;;;;;;;4.57;4.03;;;23.50;28.90;;;;;;4953119;29;20398;-68
2022/03/20 03:47:55;;;;;;;4.88;3.75;;;23.50;28.90;;;;;;4952766;29;20453;-69
2022/03/20 03:50:21;;;;;;;4.85;4.13;;;23.50;28.90;;;;;;4952920;29;20904;-68
2022/03/20 03:52:47;;;;;;;4.80;4.13;;;23.50;28.90;;;;;;4953126;29;20452;-69
2022/03/20 03:55:13;;;;;;;4.60;4.07;;;23.50;28.90;;;;;;4953061;29;20394;-68
2022/03/20 03:57:58;;;;;;;5.30;4.30;;;23.50;29.00;;;;;;4953208;29;20408;-68
2022/03/20 04:00:24;;;;;;;5.00;4.30;;;23.50;28.90;;;;;;4935721;29;20754;-69
2022/03/20 04:02:50;;;;;;;4.97;4.10;;;23.50;28.90;;;;;;4953018;29;20413;-68
2022/03/20 04:05:19;;;;;;;5.03;4.20;;;23.50;28.80;;;;;;4953200;29;20743;-67
2022/03/20 04:07:47;;;;;;;4.80;4.10;;;23.40;28.80;;;;;;4952908;29;20872;-69
2022/03/20 04:10:14;;;;;;;4.75;4.05;;;23.40;28.90;;;;;;4952710;29;20408;-69
2022/03/20 04:12:45;;;;;;;4.70;3.97;;;23.40;28.80;;;;;;4952935;29;20393;-69
2022/03/20 04:15:12;;;;;;;4.70;4.03;;;23.40;28.60;;;;;;4952978;29;20390;-68
2022/03/20 04:17:39;;;;;;;4.93;4.22;;;23.40;28.80;;;;;;4952845;28;20394;-69
2022/03/20 04:20:09;;;;;;;4.78;4.15;;;23.40;28.80;;;;;;4955922;29;20405;-66
2022/03/20 04:22:37;;;;;;;5.32;4.20;;;23.40;28.80;;;;;;4955986;29;20440;-69
2022/03/20 04:25:04;;;;;;;5.47;4.30;;;23.40;28.80;;;;;;4939054;29;20394;-69
2022/03/20 04:27:30;;;;;;;4.32;3.90;;;23.40;28.80;;;;;;4956442;29;20508;-69
2022/03/20 04:29:56;;;;;;;4.90;4.20;;;23.40;28.80;;;;;;4955897;29;20807;-69
2022/03/20 04:32:22;;;;;;;4.90;4.03;;;23.40;28.90;;;;;;4956400;29;20393;-69
2022/03/20 04:34:48;;;;;;;4.88;3.97;;;23.40;28.80;;;;;;4956432;29;20393;-69
2022/03/20 04:37:16;;;;;;;4.87;4.20;;;23.40;28.80;;;;;;4956124;29;20455;-72
2022/03/20 04:39:42;;;;;;;4.97;4.15;;;23.40;28.80;;;;;;4955602;29;20514;-67
2022/03/20 04:42:09;;;;;;;4.85;4.10;;;23.40;28.80;;;;;;4955614;29;20513;-69
2022/03/20 04:44:38;;;;;;;5.22;4.22;;;23.40;28.80;;;;;;4956124;29;20752;-69
2022/03/20 05:00:49;;;;;;;4.90;4.07;;;23.30;28.70;;;;;;4955820;29;20472;-69
2022/03/20 05:03:15;;;;;;;5.00;4.20;;;23.30;28.70;;;;;;4955862;29;20421;-67
2022/03/20 05:05:40;;;;;;;4.80;4.10;;;23.30;28.70;;;;;;4955747;29;20394;-69
2022/03/20 05:08:06;;;;;;;4.63;4.13;;;23.20;28.60;;;;;;4955358;29;20402;-69
2022/03/20 05:13:22;;;;;;;4.80;4.10;;;23.20;28.60;;;;;;4955490;29;20441;-68
2022/03/20 05:15:48;;;;;;;5.50;4.22;;;23.20;28.50;;;;;;4955252;29;20394;-67
2022/03/20 05:18:14;;;;;;;4.40;3.83;;;23.20;28.50;;;;;;4955206;29;20408;-68
2022/03/20 05:20:44;;;;;;;4.65;4.03;;;23.20;28.50;;;;;;4938135;29;20417;-69
2022/03/20 05:23:10;;;;;;;4.72;3.85;;;23.20;28.50;;;;;;4938037;29;20395;-68
2022/03/20 05:25:37;;;;;;;4.78;4.07;;;23.20;28.50;;;;;;4938120;29;20390;-69
2022/03/20 05:28:02;;;;;;;4.80;4.25;;;23.20;28.50;;;;;;4954943;29;20394;-67
2022/03/20 05:30:28;;;;;;;4.65;4.00;;;23.20;28.50;;;;;;4954970;28;20413;-68
2022/03/20 05:32:55;;;;;;;4.50;4.00;;;23.20;28.50;;;;;;4955336;29;20433;-68
2022/03/20 05:35:21;;;;;;;4.88;4.05;;;23.20;28.50;;;;;;4955269;29;20398;-69
2022/03/20 05:37:47;;;;;;;4.60;4.10;;;23.20;28.50;;;;;;4954973;29;20934;-69
2022/03/20 05:40:15;;;;;;;4.50;3.92;;;23.20;28.50;;;;;;4954922;29;20480;-69
2022/03/20 05:42:42;;;;;;;4.93;4.00;;;23.10;28.50;;;;;;4955048;29;20424;-68
2022/03/20 05:45:11;;;;;;;4.65;3.90;;;23.10;28.50;;;;;;4955107;29;20872;-68
2022/03/20 05:47:40;;;;;;;4.78;3.92;;;23.10;28.70;;;;;;4937974;29;20401;-66
2022/03/20 05:50:08;;;;;;;5.68;4.32;;;23.10;28.60;;;;;;4954318;29;20414;-67
2022/03/20 05:52:35;;;;;;;5.72;4.70;;;23.10;28.00;;;;;;4954822;29;20409;-68
2022/03/20 05:55:07;;;;;;;5.90;4.63;;;22.90;28.10;;;;;;4954258;29;20413;-68
2022/03/20 06:00:23;;;;;;;5.65;4.13;;;22.70;28.50;;;;;;4954774;29;20396;-68
2022/03/20 06:02:49;;;;;;;5.72;4.63;;;22.70;29.00;;;;;;4954788;29;20496;-67
2022/03/20 06:05:16;;;;;;;5.68;4.60;;;22.60;29.10;;;;;;4954454;29;20425;-68
2022/03/20 06:07:44;;;;;;;5.07;4.20;;;22.50;29.10;;;;;;4954577;29;20406;-67
2022/03/20 06:10:15;;;;;;;6.93;4.22;;;22.50;28.90;;;;;;4953976;29;20605;-68
2022/03/20 06:12:41;;;;;;;5.18;4.25;;;22.50;29.00;;;;;;4954352;29;20390;-68
2022/03/20 06:15:10;;;;;;;6.72;4.15;;;22.50;29.10;;;;;;4937612;29;20434;-67
2022/03/20 06:17:38;;;;;;;5.18;4.15;;;22.50;29.30;;;;;;4954327;29;20430;-67
2022/03/20 06:20:06;;;;;;;5.85;4.63;;;22.50;29.40;;;;;;4954003;29;20409;-66
2022/03/20 06:22:32;;;;;;;6.22;4.30;;;22.50;29.30;;;;;;4954119;29;20935;-66
2022/03/20 06:24:58;;;;;;;5.70;4.50;;;22.50;29.30;;;;;;4954027;29;20430;-67
2022/03/20 06:27:24;;;;;;;5.40;4.35;;;22.50;29.80;;;;;;4954314;29;20393;-66
2022/03/20 06:29:50;;;;;;;6.05;4.50;;;22.50;29.30;;;;;;4954024;29;20493;-67
2022/03/20 06:32:15;;;;;;;5.47;4.33;;;22.50;29.10;;;;;;4954024;29;20489;-66
2022/03/20 06:34:42;;;;;;;5.85;4.35;;;22.50;29.30;;;;;;4954143;29;20394;-67
2022/03/20 06:37:08;;;;;;;5.53;4.63;;;22.50;29.30;;;;;;4954079;29;20402;-67
2022/03/20 06:39:34;;;;;;;6.45;4.93;;;22.40;29.10;;;;;;4953794;29;20394;-68
2022/03/20 06:42:00;;;;;;;6.50;4.80;;;22.40;29.30;;;;;;4952762;28;20436;-67
2022/03/20 06:44:26;;;;;;;6.83;5.03;;;22.50;29.50;;;;;;4936877;29;20462;-70
2022/03/20 06:46:54;;;;;;;6.50;4.78;;;22.50;29.40;;;;;;4953946;29;20406;-67
2022/03/20 06:49:20;;;;;;;6.22;4.82;;;22.40;29.50;;;;;;4953527;29;20428;-67
2022/03/20 06:51:46;;;;;;;5.70;4.87;;;22.50;29.40;;;;;;4953773;29;20402;-68
2022/03/20 06:54:13;;;;;;;5.53;4.45;;;22.50;29.40;;;;;;4953134;29;20397;-68
2022/03/20 06:56:39;;;;;;;7.22;4.85;;;22.50;29.50;;;;;;4953818;29;20402;-68
2022/03/20 06:59:05;;;;;;;6.57;4.70;;;22.50;29.50;;;;;;4953731;29;20951;-68
2022/03/20 07:01:31;;;;;;;6.20;4.80;;;22.50;29.50;;;;;;4953632;29;20453;-67
2022/03/20 07:03:56;;;;;;;5.80;4.80;;;22.50;29.70;;;;;;4953371;29;20908;-67
2022/03/20 07:06:28;;;;;;;6.87;4.67;;;22.50;29.50;;;;;;4953319;29;20761;-67
2022/03/20 07:08:58;;;;;;;7.65;4.72;;;22.40;29.50;;;;;;4953404;29;20394;-65
2022/03/20 07:11:25;;;;;;;7.13;4.82;;;22.50;29.50;;;;;;4952973;29;20484;-68
2022/03/20 07:13:53;;;;;;;6.35;4.60;;;22.50;29.50;;;;;;4936186;29;20764;-67
2022/03/20 07:16:21;;;;;;;5.82;4.57;;;22.50;29.50;;;;;;4953124;29;20481;-67
2022/03/20 07:18:47;;;;;;;6.40;4.95;;;22.50;29.50;;;;;;4953255;29;20914;-66
2022/03/20 07:21:14;;;;;;;6.13;4.50;;;22.50;29.40;;;;;;4936193;29;20417;-66
2022/03/20 07:23:40;;;;;;;5.15;4.22;;;22.50;29.40;;;;;;4953249;29;20424;-67
2022/03/20 07:31:34;;;;;;;7.40;4.80;;;22.60;29.60;;;;;;4953257;29;20413;-67
2022/03/20 07:34:00;;;;;;;7.10;4.50;;;22.60;29.50;;;;;;4952706;29;20909;-66
2022/03/20 07:36:26;;;;;;;5.93;4.18;;;22.80;29.30;;;;;;4953034;29;20394;-66
2022/03/20 07:38:51;;;;;;;5.90;4.50;;;22.90;29.30;;;;;;4952515;29;20404;-67
2022/03/20 07:41:17;;;;;;;8.87;4.20;;;22.90;29.30;;;;;;4952651;29;20517;-65
2022/03/20 07:43:43;;;;;;;5.57;4.25;;;22.80;29.40;;;;;;4953045;29;20400;-66
2022/03/20 07:46:08;;;;;;;6.27;4.00;;;22.80;29.50;;;;;;4952440;29;20433;-66
2022/03/20 07:48:35;;;;;;;5.32;4.28;;;22.80;29.60;;;;;;4950854;28;20389;-66
2022/03/20 07:51:00;;;;;;;6.25;4.20;;;22.80;29.70;;;;;;4947076;28;20476;-66
2022/03/20 07:53:26;;;;;;;6.37;4.40;;;22.80;29.70;;;;;;4964066;28;20895;-65
2022/03/20 07:55:53;;;;;;;5.35;4.20;;;22.80;29.70;;;;;;4950050;28;20474;-66
2022/03/20 07:58:20;;;;;;;8.95;4.10;;;22.80;29.90;;;;;;4967652;28;20812;-66
2022/03/20 08:00:46;;;;;;;7.28;4.13;;;22.90;30.00;;;;;;4968658;28;22367;-68
2022/03/20 08:03:13;;;;;;;5.80;4.10;;;22.90;29.80;;;;;;4966427;28;20396;-66
2022/03/20 08:05:39;;;;;;;7.13;4.30;;;22.90;29.70;;;;;;4967399;28;20398;-67
2022/03/20 08:08:05;;;;;;;6.35;4.40;;;23.00;29.30;;;;;;4967163;28;20400;-67
2022/03/20 08:10:31;;;;;;;5.60;4.00;;;23.10;29.30;;;;;;4967069;28;20396;-68
2022/03/20 08:12:57;;;;;;;6.40;3.83;;;23.10;29.20;;;;;;4968607;28;20451;-68
2022/03/20 08:15:24;;;;;;;6.25;4.18;;;23.10;29.20;;;;;;4965668;28;20486;-67
2022/03/20 08:17:50;;;;;;;7.03;3.90;;;23.10;28.90;;;;;;4966815;28;20770;-68
2022/03/20 08:20:17;;;;;;;6.65;4.20;;;23.20;28.90;;;;;;4964599;28;20828;-68
2022/03/20 08:22:43;;;;;;;6.57;4.10;;;23.20;28.70;;;;;;4973289;28;20903;-67
2022/03/20 08:25:10;;;;;;;6.55;4.88;;;23.20;28.50;;;;;;4965550;28;20480;-67
2022/03/20 08:27:49;;;;;;;5.85;4.10;;;23.20;28.00;;;;;;4966146;28;20495;-68
2022/03/20 08:30:17;;;;;;;7.93;4.30;;;23.20;27.80;;;;;;4966278;28;20395;-68
2022/03/20 08:32:43;;;;;;;5.38;4.07;;;23.20;28.10;;;;;;4966641;28;20440;-67
2022/03/20 08:35:13;;;;;;;6.43;4.07;;;23.20;28.10;;;;;;4965587;28;20388;-68
2022/03/20 08:37:41;;;;;;;6.55;4.30;;;23.20;28.10;;;;;;4945243;28;20786;-68
2022/03/20 08:40:07;;;;;;;6.03;4.30;;;23.20;28.20;;;;;;4964963;28;20404;-67
2022/03/20 08:42:35;;;;;;;6.50;4.00;;;23.30;28.20;;;;;;4967299;28;20424;-68
2022/03/20 08:45:01;;;;;;;6.60;3.97;;;23.30;28.30;;;;;;4961194;28;20400;-68
2022/03/20 08:47:27;;;;;;;7.28;4.07;;;23.40;28.30;;;;;;4955400;29;20397;-69
2022/03/20 08:49:53;;;;;;;6.23;3.90;;;23.40;28.20;;;;;;4955544;29;20507;-70
2022/03/20 08:52:19;;;;;;;5.07;3.83;;;23.40;28.10;;;;;;4955094;29;20400;-68
2022/03/20 08:54:44;;;;;;;5.15;3.72;;;23.40;28.10;;;;;;4969023;28;20403;-68
2022/03/20 08:57:10;;;;;;;5.40;3.90;;;23.40;28.10;;;;;;4975046;28;20404;-68
2022/03/20 08:59:36;;;;;;;5.70;3.80;;;23.40;28.10;;;;;;4974853;28;20399;-69
2022/03/20 09:02:02;;;;;;;4.93;3.88;;;23.40;28.00;;;;;;4974512;28;20412;-69
2022/03/20 09:04:28;;;;;;;4.40;3.87;;;23.40;28.10;;;;;;4974188;28;20392;-67
2022/03/20 09:06:53;;;;;;;4.75;3.85;;;23.40;28.10;;;;;;4974999;28;20388;-67
2022/03/20 09:09:19;;;;;;;5.10;3.60;;;23.50;28.00;;;;;;4974851;28;20898;-68
2022/03/20 09:11:46;;;;;;;6.20;4.13;;;23.50;28.00;;;;;;4974935;28;20399;-68
2022/03/20 09:14:12;;;;;;;6.70;4.18;;;23.50;27.90;;;;;;4974215;28;20479;-68
2022/03/20 09:19:22;;;;;;;5.38;3.72;;;23.60;28.60;;;;;;4974533;28;20434;-67
2022/03/20 09:21:48;;;;;;;6.40;3.97;;;23.60;28.70;;;;;;4974732;28;20787;-67
2022/03/20 09:24:15;;;;;;;4.68;3.60;;;23.70;28.70;;;;;;4974104;28;20392;-67
2022/03/20 09:26:41;;;;;;;6.82;4.00;;;23.70;28.90;;;;;;4974565;28;20403;-69
2022/03/20 09:29:07;;;;;;;5.20;3.85;;;23.60;29.00;;;;;;4974558;28;20396;-67
2022/03/20 09:31:34;;;;;;;5.87;3.97;;;23.60;28.80;;;;;;4971219;28;20457;-67
2022/03/20 09:34:01;;;;;;;5.60;4.20;;;23.60;28.90;;;;;;4959124;28;20398;-67
2022/03/20 09:36:27;;;;;;;4.53;3.90;;;23.70;28.90;;;;;;4955297;29;20492;-68
2022/03/20 09:38:53;;;;;;;4.85;3.58;;;23.70;29.10;;;;;;4954934;29;20479;-69
2022/03/20 09:41:22;;;;;;;4.82;3.80;;;23.70;28.90;;;;;;4954343;29;20912;-68
2022/03/20 09:43:48;;;;;;;5.53;3.80;;;23.70;28.80;;;;;;4953209;28;20404;-67
2022/03/20 09:46:15;;;;;;;4.60;3.50;;;23.80;28.80;;;;;;4952998;29;20820;-67
2022/03/20 09:48:43;;;;;;;5.97;3.47;;;23.80;28.50;;;;;;4952640;29;20527;-67
2022/03/20 09:51:09;;;;;;;4.18;3.20;;;23.80;28.50;;;;;;4949810;29;20406;-68
2022/03/20 09:53:35;;;;;;;4.63;3.53;;;23.70;28.50;;;;;;4954472;29;20394;-67
2022/03/20 09:56:05;;;;;;;5.13;3.50;;;23.80;28.50;;;;;;4954353;29;20445;-68
2022/03/20 09:58:31;;;;;;;4.32;3.58;;;23.70;28.40;;;;;;4953978;29;20856;-67
2022/03/20 10:00:57;;;;;;;4.30;3.60;;;23.70;28.30;;;;;;4954557;29;20450;-67
2022/03/20 10:03:24;;;;;;;4.40;3.37;;;23.70;28.40;;;;;;4936718;29;20500;-68
2022/03/20 10:06:19;;;;;;;4.90;3.40;;;23.70;28.50;;;;;;4954552;29;20398;-67
2022/03/20 10:09:00;;;;;;;4.43;3.40;;;23.70;28.40;;;;;;4954445;29;20394;-67
2022/03/20 10:11:26;;;;;;;5.07;3.80;;;23.70;28.40;;;;;;4954360;29;20402;-68
2022/03/20 10:14:13;;;;;;;4.22;3.58;;;23.70;28.40;;;;;;4954371;29;20484;-68
2022/03/20 10:16:48;;;;;;;4.45;3.42;;;23.70;28.40;;;;;;4953488;28;20754;-67
2022/03/20 10:19:22;;;;;;;4.20;3.50;;;23.70;28.40;;;;;;4953737;29;20436;-69
2022/03/20 10:21:56;;;;;;;6.38;3.50;;;23.70;28.50;;;;;;4943657;28;20438;-67
2022/03/20 10:24:24;;;;;;;4.20;3.33;;;23.60;28.90;;;;;;4952753;28;20801;-67
2022/03/20 10:27:04;;;;;;;5.35;3.50;;;23.70;30.00;;;;;;4951114;28;20445;-70
2022/03/20 10:29:32;;;;;;;4.63;3.60;;;23.70;29.90;;;;;;4961504;28;20386;-68
2022/03/20 10:32:10;;;;;;;4.47;3.50;;;23.70;29.80;;;;;;4945194;28;20406;-70
2022/03/20 10:34:54;;;;;;;4.88;3.67;;;23.80;29.70;;;;;;4949059;28;20763;-66
2022/03/20 10:37:39;;;;;;;4.90;3.70;;;23.80;29.50;;;;;;4943162;28;20856;-67
2022/03/20 10:40:10;;;;;;;5.20;3.50;;;23.80;29.30;;;;;;4947016;28;20386;-68
2022/03/20 10:42:36;;;;;;;4.67;3.47;;;23.80;29.10;;;;;;4972896;28;20522;-69
2022/03/20 10:45:08;;;;;;;5.32;3.38;;;23.90;28.70;;;;;;4973085;28;20808;-69
2022/03/20 10:47:44;;;;;;;5.32;3.50;;;23.80;28.60;;;;;;5109420;27;20359;-68
2022/03/20 10:50:10;;;;;;;5.00;3.70;;;23.80;28.40;;;;;;5108855;28;20381;-68
2022/03/20 10:52:36;;;;;;;4.68;3.40;;;23.90;28.30;;;;;;5108724;28;20480;-67
2022/03/20 10:55:12;;;;;;;4.30;3.50;;;23.90;28.40;;;;;;5108821;28;20377;-67
2022/03/20 10:57:39;;;;;;;4.20;3.40;;;23.90;28.30;;;;;;5108326;28;20814;-68
2022/03/20 11:00:07;;;;;;;4.30;3.38;;;23.80;28.30;;;;;;5108551;28;20381;-68
2022/03/20 11:02:37;;;;;;;3.97;3.20;;;23.90;28.30;;;;;;5107238;28;20389;-68
2022/03/20 11:05:03;;;;;;;5.10;3.30;;;23.80;28.50;;;;;;5108519;28;20389;-68
2022/03/20 11:07:28;;;;;;;4.10;3.20;;;23.80;28.20;;;;;;5108825;28;20835;-67
2022/03/20 11:09:55;;;;;;;4.28;3.22;;;23.80;28.20;;;;;;5108875;28;20373;-67
2022/03/20 11:12:28;;;;;;;3.80;3.30;;;23.80;28.20;;;;;;5108020;28;20386;-66
2022/03/20 11:15:00;;;;;;;7.82;4.25;;;23.80;28.60;;;;;;5108667;28;20393;-66
2022/03/20 11:17:51;;;;;;;8.15;4.40;;;23.90;27.70;;;;;;5108720;28;20413;-66
2022/03/20 11:20:18;;;;;;;6.32;3.90;;;23.80;26.10;;;;;;5107493;28;20397;-66
2022/03/20 11:22:53;;;;;;;7.50;4.10;;;23.70;27.10;;;;;;5107645;28;20389;-66
2022/03/20 11:25:26;;;;;;;6.60;3.80;;;23.80;27.40;;;;;;5107109;28;20389;-66
2022/03/20 11:27:55;;;;;;;8.02;3.63;;;23.80;27.70;;;;;;5105239;28;20412;-67
2022/03/20 11:30:27;;;;;;;5.00;3.50;;;23.80;27.90;;;;;;5107404;28;20738;-68
2022/03/20 11:32:56;;;;;;;5.22;3.58;;;23.80;28.10;;;;;;5108683;28;20522;-67
2022/03/20 11:35:28;;;;;;;5.40;3.42;;;23.80;28.00;;;;;;5108334;28;20476;-65
2022/03/20 11:37:59;;;;;;;4.38;3.35;;;23.90;28.00;;;;;;5108241;28;20390;-68
2022/03/20 11:40:26;;;;;;;5.80;3.40;;;24.50;30.00;;;;;;5107503;28;20389;-67
2022/03/20 11:43:11;;;;;;;6.68;3.38;;;25.50;27.90;;;;;;5108014;28;20468;-67
2022/03/20 11:45:37;;;;;;;5.38;3.50;;;26.10;27.30;;;;;;5106718;28;20474;-67
2022/03/20 11:48:16;;;;;;;4.50;3.38;;;26.40;27.00;;;;;;5107689;28;20381;-67
2022/03/20 11:50:49;;;;;;;5.40;3.53;;;26.60;26.80;;;;;;5106159;28;20888;-67
2022/03/20 11:53:28;;;;;;;4.82;3.50;;;26.70;26.60;;;;;;5105427;28;20401;-67
2022/03/20 11:55:54;;;;;;;5.68;3.20;;;26.80;26.50;;;;;;5107989;28;20382;-68
2022/03/20 11:58:24;;;;;;;4.15;3.10;;;26.90;26.50;;;;;;5097606;28;20409;-68
2022/03/20 12:01:09;;;;;;;3.70;3.20;;;27.00;26.50;;;;;;5093935;28;20382;-68
2022/03/20 12:04:04;;;;;;;4.00;3.20;;;27.10;26.40;;;;;;5094028;28;20390;-70
2022/03/20 12:06:48;;;;;;;4.10;3.08;;;27.20;26.40;;;;;;5093604;28;20406;-68
2022/03/20 12:09:25;;;;;;;5.30;3.33;;;27.20;26.20;;;;;;5094165;28;20493;-69
2022/03/20 12:12:09;;;;;;;5.05;3.33;;;27.30;26.20;;;;;;5093576;28;20417;-65
2022/03/20 12:14:42;;;;;;;4.05;3.28;;;27.40;26.10;;;;;;5092171;28;20481;-69
2022/03/20 12:17:08;;;;;;;3.80;2.97;;;27.50;26.10;;;;;;5093814;28;20427;-69
2022/03/20 12:19:49;;;;;;;4.57;3.30;;;27.50;26.00;;;;;;5093901;28;20758;-68
2022/03/20 12:22:35;;;;;;;4.75;3.20;;;27.50;26.00;;;;;;5093589;28;20378;-70
2022/03/20 12:25:04;;;;;;;4.10;2.97;;;27.60;25.90;;;;;;5093585;28;20429;-68
2022/03/20 12:27:30;;;;;;;3.95;2.83;;;27.70;25.90;;;;;;5093637;28;20405;-69
2022/03/20 12:30:05;;;;;;;3.70;2.92;;;27.70;25.90;;;;;;5093566;28;20393;-67
2022/03/20 12:32:59;;;;;;;3.83;3.17;;;27.80;25.90;;;;;;5090365;28;20581;-67
2022/03/20 12:35:41;;;;;;;4.72;3.10;;;27.80;25.80;;;;;;5092766;28;20378;-69
2022/03/20 12:38:07;;;;;;;3.63;2.95;;;27.80;25.80;;;;;;5091605;28;20731;-68
2022/03/20 12:40:34;;;;;;;4.60;2.80;;;27.90;26.00;;;;;;5092503;28;20500;-68
2022/03/20 12:42:59;;;;;;;4.97;2.90;;;27.90;26.30;;;;;;5093035;28;20459;-69
2022/03/20 12:45:30;;;;;;;4.47;2.60;;;27.90;26.30;;;;;;5091476;28;20887;-69
2022/03/20 12:48:10;;;;;;;5.17;3.20;;;28.00;26.40;;;;;;5092921;28;20874;-69
2022/03/20 12:50:41;;;;;;;4.78;2.90;;;28.00;26.80;;;;;;5092821;28;20830;-69
2022/03/20 12:53:21;;;;;;;5.28;2.90;;;28.00;26.60;;;;;;5092968;28;20397;-69
2022/03/20 12:55:58;;;;;;;3.28;2.72;;;28.00;27.10;;;;;;5090208;28;20428;-72
2022/03/20 12:58:24;;;;;;;5.78;3.10;;;28.10;27.20;;;;;;5091402;28;20387;-68
2022/03/20 13:00:52;;;;;;;6.03;2.72;;;28.10;27.20;;;;;;5093178;28;20399;-67
2022/03/20 13:03:19;;;;;;;7.30;3.27;;;28.10;27.00;;;;;;5091625;28;20415;-69
2022/03/20 13:05:45;;;;;;;15.45;3.40;;;28.20;27.60;;;;;;5092949;28;20408;-66
2022/03/20 13:08:17;;;;;;;6.27;3.10;;;28.20;26.90;;;;;;5092648;28;20477;-65
2022/03/20 13:10:43;;;;;;;9.07;3.30;;;28.30;26.80;;;;;;5091744;28;20428;-66
2022/03/20 13:13:09;;;;;;;7.35;3.20;;;28.30;26.70;;;;;;5092926;28;20394;-67
2022/03/20 13:15:37;;;;;;;5.97;3.30;;;28.30;26.70;;;;;;5092804;28;20421;-67
2022/03/20 13:18:05;;;;;;;6.43;3.30;;;28.30;26.80;;;;;;5092055;28;20393;-67
2022/03/20 13:20:34;;;;;;;4.93;2.90;;;28.30;26.60;;;;;;5091201;28;20382;-67
2022/03/20 13:23:09;;;;;;;6.10;3.07;;;28.30;26.60;;;;;;5092848;28;20526;-67
2022/03/20 13:25:40;;;;;;;5.53;3.10;;;28.30;26.80;;;;;;5092476;28;20406;-66